Time;durP1;ratioP1;P1;durP2;ratioP2;P2;SDS_P1;SDS_P2;PMS_P1;PMS_P2;Temp;Humidity;BMP_temperature;BMP_pressure;BME280_temperature;BME280_humidity;BME280_pressure;Samples;Min_cycle;Max_cycle;Signal;HPM_P1;HPM_P2
2021/04/07 00:02:19;;;;;;;31.50;12.33;;;;;;;2.81;58.23;98906.66;1703607;82;21183;-84
2021/04/07 00:05:05;;;;;;;36.73;13.50;;;;;;;2.69;58.59;98905.14;1701145;82;21186;-82
2021/04/07 00:07:31;;;;;;;38.42;12.80;;;;;;;2.67;58.63;98905.73;1705905;82;21277;-82
2021/04/07 00:10:00;;;;;;;34.38;12.68;;;;;;;2.36;59.55;98898.02;1704649;82;21157;-83
2021/04/07 00:12:27;;;;;;;34.98;12.60;;;;;;;2.51;59.54;98911.48;1703865;82;21354;-81
2021/04/07 00:14:53;;;;;;;;;;;;;;;2.44;59.61;98904.70;1672983;83;21181;-83
2021/04/07 00:17:26;;;;;;;33.53;12.63;;;;;;;2.33;60.05;98908.70;1677082;81;20697;-83
2021/04/07 00:19:53;;;;;;;36.42;12.40;;;;;;;2.43;59.86;98903.04;1706295;82;21218;-84
2021/04/07 00:22:20;;;;;;;37.55;14.07;;;;;;;2.17;60.57;98913.13;1678414;81;21205;-82
2021/04/07 00:24:48;;;;;;;41.13;13.95;;;;;;;2.20;60.69;98908.14;1709438;81;21223;-82
2021/04/07 00:27:15;;;;;;;38.17;13.58;;;;;;;1.95;61.39;98910.26;1705904;83;21576;-82
2021/04/07 00:29:42;;;;;;;32.00;12.50;;;;;;;1.82;62.00;98907.05;1704473;82;21125;-83
2021/04/07 00:32:07;;;;;;;30.32;12.47;;;;;;;1.92;61.83;98910.52;1673400;83;21499;-82
2021/04/07 00:34:34;;;;;;;34.53;13.38;;;;;;;1.91;61.96;98910.16;1697287;82;21231;-84
2021/04/07 00:37:04;;;;;;;32.40;13.80;;;;;;;1.88;62.06;98909.13;1699478;82;21242;-84
2021/04/07 00:39:32;;;;;;;39.95;14.55;;;;;;;1.84;62.33;98913.78;1703133;82;21655;-84
2021/04/07 00:42:07;;;;;;;;;;;;;;;1.96;62.03;98906.70;1707038;82;21211;-83
2021/04/07 00:44:33;;;;;;;39.13;13.88;;;;;;;2.05;61.77;98911.58;1698796;82;20312;-84
2021/04/07 00:47:00;;;;;;;36.00;12.90;;;;;;;1.95;62.21;98906.35;1698896;82;20955;-83
2021/04/07 00:49:26;;;;;;;41.35;14.93;;;;;;;1.87;62.57;98904.89;1709901;82;21213;-82
2021/04/07 00:51:57;;;;;;;32.33;12.98;;;;;;;1.88;62.72;98903.91;1701800;82;21186;-82
2021/04/07 00:54:24;;;;;;;33.60;12.73;;;;;;;1.93;62.51;98902.58;1699181;82;21134;-82
2021/04/07 00:56:50;;;;;;;34.27;13.48;;;;;;;2.01;62.45;98901.92;1702923;82;22410;-82
2021/04/07 00:59:18;;;;;;;39.53;14.37;;;;;;;2.04;62.52;98903.45;1703430;82;21502;-82
2021/04/07 01:01:46;;;;;;;;;;;;;;;2.03;62.58;98901.30;1706624;81;21497;-82
2021/04/07 01:04:12;;;;;;;34.60;13.65;;;;;;;2.07;62.56;98897.97;1701583;82;20302;-82
2021/04/07 01:06:43;;;;;;;33.40;13.77;;;;;;;2.03;62.67;98901.30;1672441;83;21028;-83
2021/04/07 01:09:12;;;;;;;37.28;13.55;;;;;;;2.10;62.67;98897.70;1706721;82;21224;-83
2021/04/07 01:11:41;;;;;;;36.63;14.13;;;;;;;2.01;62.96;98899.31;1673691;83;21249;-83
2021/04/07 01:14:09;;;;;;;37.17;15.20;;;;;;;2.10;62.69;98897.70;1720601;81;21208;-84
2021/04/07 01:16:36;;;;;;;41.73;15.13;;;;;;;2.01;63.03;98900.62;1682388;83;21284;-83
2021/04/07 01:19:01;;;;;;;36.33;14.05;;;;;;;1.96;63.30;98905.41;1701089;82;21232;-82
2021/04/07 01:21:30;;;;;;;34.30;13.63;;;;;;;1.92;63.48;98904.01;1711315;82;21003;-83
2021/04/07 01:23:57;;;;;;;39.10;14.43;;;;;;;1.97;63.35;98900.52;1677378;81;21297;-83
2021/04/07 01:26:24;;;;;;;34.78;13.72;;;;;;;1.91;63.79;98906.26;1677672;82;21413;-83
2021/04/07 01:28:52;;;;;;;38.00;13.88;;;;;;;1.95;63.78;98910.26;1707197;83;21205;-83
2021/04/07 01:31:18;;;;;;;40.55;14.45;;;;;;;1.91;64.09;98908.86;1702481;81;21128;-83
2021/04/07 01:33:46;;;;;;;34.98;13.20;;;;;;;1.88;64.25;98913.03;1702649;82;21671;-83
2021/04/07 01:36:15;;;;;;;38.17;14.85;;;;;;;1.86;64.25;98913.16;1701020;83;21181;-83
2021/04/07 01:38:42;;;;;;;37.90;13.55;;;;;;;1.75;64.97;98910.66;1699734;83;21212;-83
2021/04/07 01:41:08;;;;;;;;;;;;;;;1.75;64.97;98910.66;1711734;81;21191;-83
2021/04/07 01:43:36;;;;;;;34.75;13.58;;;;;;;1.73;65.19;98915.99;1702884;83;20233;-84
2021/04/07 01:46:06;;;;;;;34.92;13.55;;;;;;;1.63;65.64;98920.31;1702504;82;21229;-83
2021/04/07 01:48:35;;;;;;;34.20;12.07;;;;;;;1.63;65.79;98924.22;1705611;83;22252;-83
2021/04/07 01:51:01;;;;;;;36.75;14.05;;;;;;;1.65;65.74;98928.84;1703587;82;21404;-83
2021/04/07 01:53:27;;;;;;;37.43;14.47;;;;;;;1.60;66.15;98934.42;1702366;82;21056;-82
2021/04/07 01:55:53;;;;;;;34.90;13.37;;;;;;;1.63;66.21;98929.42;1706048;81;21037;-83
2021/04/07 01:58:18;;;;;;;32.03;12.37;;;;;;;1.62;66.32;98935.59;1703310;83;20979;-83
2021/04/07 02:00:46;;;;;;;33.57;14.13;;;;;;;1.67;66.31;98930.01;1700741;83;20952;-82
2021/04/07 02:03:12;;;;;;;38.05;15.05;;;;;;;1.55;66.71;98936.56;1700486;83;22798;-83
2021/04/07 02:05:38;;;;;;;36.80;13.40;;;;;;;1.54;67.02;98934.09;1703834;83;21026;-83
2021/04/07 02:08:04;;;;;;;36.10;15.03;;;;;;;1.46;67.35;98945.17;1659796;83;21289;-83
2021/04/07 02:10:32;;;;;;;31.20;13.43;;;;;;;1.50;67.26;98940.53;1698459;83;21316;-83
2021/04/07 02:12:59;;;;;;;33.15;13.62;;;;;;;1.71;66.44;98936.13;1678625;83;21232;-83
2021/04/07 02:15:25;;;;;;;35.57;13.70;;;;;;;1.82;66.19;98939.58;1704901;83;21131;-83
2021/04/07 02:17:51;;;;;;;35.45;14.65;;;;;;;1.88;66.32;98936.45;1703606;83;21226;-82
2021/04/07 02:20:19;;;;;;;37.57;14.20;;;;;;;1.87;66.38;98938.25;1706458;82;21039;-82
2021/04/07 02:22:48;;;;;;;30.45;13.28;;;;;;;1.85;66.48;98940.16;1703541;82;21560;-83
2021/04/07 02:25:14;;;;;;;38.75;15.18;;;;;;;2.00;65.92;98940.62;1702593;83;21162;-82
2021/04/07 02:27:42;;;;;;;34.38;13.75;;;;;;;1.97;65.99;98939.13;1698771;83;21464;-83
2021/04/07 02:30:10;;;;;;;;;;;;;;;2.06;65.72;98941.39;1703223;82;21404;-83
2021/04/07 02:32:38;;;;;;;30.68;13.03;;;;;;;2.17;65.47;98948.77;1700200;83;20308;-83
2021/04/07 02:35:04;;;;;;;35.68;14.58;;;;;;;2.22;65.09;98945.28;1701930;83;21195;-82
2021/04/07 02:37:31;;;;;;;34.90;14.13;;;;;;;1.99;65.73;98949.41;1711674;82;21196;-81
2021/04/07 02:39:58;;;;;;;36.38;14.35;;;;;;;2.02;65.60;98943.94;1708411;82;21250;-84
2021/04/07 02:42:26;;;;;;;35.05;14.63;;;;;;;2.06;65.52;98937.48;1708615;82;21291;-82
2021/04/07 02:44:52;;;;;;;;;;;;;;;2.10;65.48;98942.79;1707598;82;21679;-82
2021/04/07 02:47:19;;;;;;;32.83;13.77;;;;;;;2.10;65.64;98942.79;1702762;83;20247;-83
2021/04/07 02:49:48;;;;;;;34.48;14.55;;;;;;;2.20;65.37;98946.72;1708507;82;21184;-82
2021/04/07 02:52:14;;;;;;;37.40;13.83;;;;;;;2.23;65.18;98952.16;1714017;82;21525;-82
2021/04/07 02:54:44;;;;;;;32.23;14.97;;;;;;;2.20;65.43;98952.41;1707953;82;20967;-82
2021/04/07 02:57:13;;;;;;;33.90;15.05;;;;;;;2.25;65.27;98969.77;1692781;82;21232;-83
2021/04/07 02:59:40;;;;;;;37.00;15.48;;;;;;;1.97;66.15;98959.11;1688325;83;21217;-82
2021/04/07 03:02:06;;;;;;;35.68;15.08;;;;;;;2.08;65.98;98967.30;1698410;83;21640;-83
2021/04/07 03:04:35;;;;;;;43.27;15.13;;;;;;;2.09;66.09;98968.96;1692781;83;21123;-82
2021/04/07 03:07:01;;;;;;;34.20;14.63;;;;;;;2.13;65.86;98969.88;1698100;82;21497;-82
2021/04/07 03:09:26;;;;;;;33.50;14.83;;;;;;;2.17;65.92;98962.61;1691881;83;20960;-82
2021/04/07 03:11:54;;;;;;;34.23;14.30;;;;;;;2.19;65.96;98966.39;1662987;83;21209;-81
2021/04/07 03:14:23;;;;;;;32.80;13.22;;;;;;;2.19;66.14;98967.69;1698088;83;22313;-82
2021/04/07 03:16:49;;;;;;;36.15;15.28;;;;;;;2.11;66.42;98970.48;1695041;83;21364;-82
2021/04/07 03:19:15;;;;;;;34.25;14.50;;;;;;;1.76;67.59;98970.38;1692158;83;21686;-82
2021/04/07 03:21:41;;;;;;;38.43;16.00;;;;;;;1.87;67.42;98968.18;1703186;83;21205;-83
2021/04/07 03:24:07;;;;;;;35.60;15.87;;;;;;;1.66;68.25;98969.50;1696710;83;21573;-84
2021/04/07 03:26:33;;;;;;;41.10;17.20;;;;;;;1.47;69.09;98975.90;1703214;83;21217;-82
2021/04/07 03:28:59;;;;;;;38.23;14.90;;;;;;;1.35;69.69;98973.37;1654724;83;20932;-84
2021/04/07 03:31:28;;;;;;;37.33;16.10;;;;;;;1.16;70.52;98970.13;1701974;83;20943;-83
2021/04/07 03:33:55;;;;;;;35.55;15.53;;;;;;;0.95;71.53;98976.61;1706581;83;21181;-85
2021/04/07 03:36:21;;;;;;;34.30;15.13;;;;;;;0.96;71.85;98974.34;1699788;83;21559;-83
2021/04/07 03:38:49;;;;;;;36.43;15.80;;;;;;;0.88;72.15;98971.55;1697862;82;22062;-83
2021/04/07 03:41:14;;;;;;;;;;;;;;;0.96;72.36;98979.54;1675898;83;21512;-81
2021/04/07 03:43:40;;;;;;;33.60;14.78;;;;;;;0.87;72.58;98973.78;1715489;81;20471;-80
2021/04/07 03:46:06;;;;;;;37.70;13.90;;;;;;;0.94;72.40;98973.65;1707459;83;21018;-82
2021/04/07 03:48:34;;;;;;;32.63;14.80;;;;;;;0.86;72.69;98977.35;1708731;83;21231;-80
2021/04/07 03:51:02;;;;;;;36.58;14.68;;;;;;;0.86;72.80;98983.84;1704635;81;21694;-81
2021/04/07 03:53:28;;;;;;;36.40;14.97;;;;;;;0.75;73.37;98983.89;1705631;83;21377;-81
2021/04/07 03:55:57;;;;;;;33.43;13.83;;;;;;;0.88;72.97;98985.84;1702385;83;21043;-82
2021/04/07 03:58:24;;;;;;;32.60;14.35;;;;;;;1.07;72.22;98992.52;1705908;82;21152;-82
2021/04/07 04:00:53;;;;;;;33.33;14.35;;;;;;;1.24;71.46;98993.75;1703829;82;21203;-84
2021/04/07 04:03:21;;;;;;;29.87;13.58;;;;;;;1.36;71.06;98998.89;1708450;82;21193;-82
2021/04/07 04:05:51;;;;;;;34.08;13.83;;;;;;;1.37;70.92;99000.55;1706597;82;21211;-82
2021/04/07 04:08:18;;;;;;;32.63;14.13;;;;;;;1.50;70.43;98997.27;1710250;82;21218;-82
2021/04/07 04:10:44;;;;;;;32.80;14.23;;;;;;;1.55;69.99;99000.80;1708013;82;21159;-81
2021/04/07 04:13:16;;;;;;;32.87;14.97;;;;;;;1.54;70.04;99004.34;1704984;82;22987;-82
2021/04/07 04:15:45;;;;;;;34.85;14.63;;;;;;;1.20;71.30;99001.93;1685361;82;21158;-83
2021/04/07 04:18:13;;;;;;;38.30;15.45;;;;;;;1.28;71.37;99012.52;1712605;83;21250;-83
2021/04/07 04:20:44;;;;;;;;;;;;;;;1.10;72.04;99008.81;1710258;82;21257;-82
2021/04/07 04:23:11;;;;;;;35.65;15.85;;;;;;;0.85;73.17;99013.38;1707295;82;20294;-82
2021/04/07 04:25:37;;;;;;;35.75;15.72;;;;;;;0.73;73.82;99015.19;1694432;83;21210;-85
2021/04/07 04:28:07;;;;;;;38.38;15.32;;;;;;;0.83;73.66;99024.38;1700162;83;21698;-82
2021/04/07 04:30:33;;;;;;;32.23;14.65;;;;;;;0.73;74.03;99025.59;1695462;83;21767;-84
2021/04/07 04:32:59;;;;;;;37.87;16.70;;;;;;;0.82;73.80;99024.02;1694215;83;20971;-82
2021/04/07 04:35:24;;;;;;;32.87;14.73;;;;;;;0.70;74.56;99026.64;1691426;83;21049;-83
2021/04/07 04:37:51;;;;;;;36.77;15.60;;;;;;;0.91;73.85;99018.08;1693462;83;21270;-83
2021/04/07 04:40:17;;;;;;;30.52;14.73;;;;;;;0.87;74.07;99020.56;1691840;83;21226;-84
2021/04/07 04:42:43;;;;;;;32.93;14.35;;;;;;;0.73;74.90;99022.14;1691377;83;21267;-84
2021/04/07 04:45:12;;;;;;;38.87;18.00;;;;;;;0.66;75.20;99027.82;1692448;83;21146;-81
2021/04/07 04:47:37;;;;;;;34.03;15.28;;;;;;;0.71;75.42;99025.70;1690389;83;21217;-84
2021/04/07 04:50:07;;;;;;;32.83;15.97;;;;;;;0.85;75.49;99028.97;1692797;83;21147;-84
2021/04/07 04:52:35;;;;;;;37.42;16.15;;;;;;;0.79;75.87;99034.65;1670158;83;21614;-82
2021/04/07 04:55:08;;;;;;;37.73;16.20;;;;;;;0.81;76.05;99032.75;1696365;83;21762;-81
2021/04/07 04:57:34;;;;;;;37.67;15.53;;;;;;;0.94;75.91;99040.42;1684822;83;21237;-82
2021/04/07 05:00:02;;;;;;;42.07;17.10;;;;;;;0.88;76.20;99041.23;1682454;84;21063;-82
2021/04/07 05:02:29;;;;;;;35.88;15.90;;;;;;;0.84;76.57;99050.70;1684926;84;21228;-84
2021/04/07 05:04:57;;;;;;;37.93;16.10;;;;;;;0.94;76.56;99047.73;1690186;84;21293;-83
2021/04/07 05:07:25;;;;;;;28.67;13.88;;;;;;;1.13;76.13;99044.97;1686566;84;21231;-84
2021/04/07 05:09:52;;;;;;;36.55;16.55;;;;;;;1.28;75.68;99043.73;1687047;84;21220;-82
2021/04/07 05:12:17;;;;;;;39.40;15.47;;;;;;;1.07;76.33;99052.31;1687633;84;21516;-82
2021/04/07 05:14:45;;;;;;;34.27;15.53;;;;;;;1.08;76.69;99049.23;1686503;83;21026;-81
2021/04/07 05:17:15;;;;;;;34.88;15.93;;;;;;;1.20;76.59;99046.95;1682658;84;21520;-82
2021/04/07 05:19:43;;;;;;;36.03;15.95;;;;;;;1.16;76.80;99058.53;1695005;84;21217;-81
2021/04/07 05:22:09;;;;;;;34.48;14.70;;;;;;;1.32;76.33;99046.45;1662680;84;21555;-80
2021/04/07 05:24:39;;;;;;;34.80;15.07;;;;;;;1.20;76.82;99044.83;1683707;84;20971;-79
2021/04/07 05:27:06;;;;;;;30.80;15.10;;;;;;;1.14;77.22;99051.83;1687113;84;22265;-78
2021/04/07 05:29:35;;;;;;;33.45;15.35;;;;;;;1.14;77.58;99053.12;1682374;84;21237;-79
2021/04/07 05:32:03;;;;;;;32.70;15.20;;;;;;;1.23;77.50;99053.69;1662295;84;21210;-78
2021/04/07 05:34:32;;;;;;;;;;;;;;;1.22;77.54;99059.83;1689976;84;21192;-78
2021/04/07 05:36:57;;;;;;;27.45;12.65;;;;;;;1.37;77.32;99057.29;1681152;84;20634;-81
2021/04/07 05:39:25;;;;;;;32.53;13.73;;;;;;;1.43;77.10;99063.30;1685644;84;21122;-81
2021/04/07 05:41:55;;;;;;;27.87;13.70;;;;;;;1.63;76.64;99063.43;1683919;84;27081;-85
2021/04/07 05:44:24;;;;;;;34.00;15.30;;;;;;;1.78;76.26;99073.06;1682987;84;21223;-83
2021/04/07 05:46:52;;;;;;;32.55;15.25;;;;;;;1.61;76.71;99064.04;1686779;84;21607;-83
2021/04/07 05:49:21;;;;;;;34.95;14.10;;;;;;;1.56;76.96;99057.09;1661959;84;21214;-81
2021/04/07 05:51:46;;;;;;;31.95;14.38;;;;;;;1.55;77.04;99068.45;1685450;84;21129;-83
2021/04/07 05:54:19;;;;;;;38.20;16.37;;;;;;;1.58;77.06;99052.58;1687382;84;20971;-83
2021/04/07 05:56:45;;;;;;;31.50;15.48;;;;;;;1.55;77.38;99047.63;1689837;83;22054;-84
2021/04/07 05:59:11;;;;;;;31.27;14.28;;;;;;;1.58;77.23;99048.68;1688790;84;21208;-83
2021/04/07 06:01:39;;;;;;;32.20;16.23;;;;;;;1.81;76.88;99047.27;1691618;84;20998;-84
2021/04/07 06:04:04;;;;;;;;;;;;;;;1.63;77.10;99059.53;1687671;83;21652;-81
2021/04/07 06:06:32;;;;;;;33.33;15.27;;;;;;;1.73;77.15;99057.02;1685285;84;20239;-81
2021/04/07 06:08:58;;;;;;;37.63;16.75;;;;;;;1.71;76.90;99065.41;1681183;84;21528;-82
2021/04/07 06:11:26;;;;;;;33.15;15.55;;;;;;;1.74;76.97;99059.49;1693560;84;21146;-83
2021/04/07 06:13:55;;;;;;;36.33;16.77;;;;;;;1.64;76.98;99058.58;1688720;82;21249;-80
2021/04/07 06:16:24;;;;;;;37.25;17.75;;;;;;;1.79;76.61;99056.51;1686206;84;21204;-79
2021/04/07 06:18:52;;;;;;;32.15;16.93;;;;;;;1.88;76.24;99062.25;1687736;84;21221;-80
2021/04/07 06:21:21;;;;;;;34.50;16.30;;;;;;;1.71;76.95;99063.65;1688142;84;21492;-80
2021/04/07 06:23:50;;;;;;;34.27;16.73;;;;;;;1.79;76.67;99066.44;1686483;82;21213;-83
2021/04/07 06:26:15;;;;;;;37.30;19.45;;;;;;;1.68;76.79;99069.10;1692524;83;21613;-80
2021/04/07 06:28:41;;;;;;;34.80;16.90;;;;;;;1.52;77.71;99084.30;1690565;84;22496;-81
2021/04/07 06:31:08;;;;;;;37.23;17.73;;;;;;;1.69;77.29;99070.73;1659590;84;21501;-83
2021/04/07 06:33:36;;;;;;;;;;;;;;;1.63;77.56;99079.04;1693116;84;21297;-82
2021/04/07 06:36:04;;;;;;;36.38;16.65;;;;;;;1.76;77.34;99081.48;1706531;82;20335;-79
2021/04/07 06:38:33;;;;;;;38.83;17.98;;;;;;;1.85;77.04;99090.30;1683400;82;21185;-80
2021/04/07 06:41:02;;;;;;;36.73;18.57;;;;;;;1.67;77.17;99086.95;1689226;82;21193;-82
2021/04/07 06:43:31;;;;;;;35.70;17.90;;;;;;;1.56;77.35;99094.83;1686606;84;21127;-80
2021/04/07 06:45:58;;;;;;;31.23;17.07;;;;;;;1.60;77.31;99087.09;1688001;84;23437;-80
2021/04/07 06:48:26;;;;;;;33.88;18.07;;;;;;;1.53;77.34;99093.77;1685711;84;21277;-79
2021/04/07 06:50:54;;;;;;;35.65;18.15;;;;;;;1.49;77.80;99126.17;1688443;84;21244;-78
2021/04/07 06:53:29;;;;;;;32.30;17.48;;;;;;;1.40;78.04;99122.08;1635961;84;21225;-81
2021/04/07 06:55:55;;;;;;;29.52;16.12;;;;;;;1.40;78.32;99117.36;1686060;83;21769;-79
2021/04/07 06:58:24;;;;;;;32.42;16.97;;;;;;;1.57;77.76;99122.47;1694041;84;21244;-83
2021/04/07 07:00:54;;;;;;;37.20;18.07;;;;;;;1.53;77.67;99136.70;1688441;84;21262;-80
2021/04/07 07:03:21;;;;;;;30.75;16.23;;;;;;;1.38;78.39;99132.23;1655015;84;21217;-81
2021/04/07 07:05:54;;;;;;;36.08;17.90;;;;;;;1.38;78.39;99132.23;1689309;84;21240;-81
2021/04/07 07:08:21;;;;;;;35.90;17.90;;;;;;;1.51;78.29;99133.38;1685856;84;22304;-81
2021/04/07 07:10:52;;;;;;;31.60;17.70;;;;;;;1.51;78.26;99132.07;1688332;84;21406;-81
2021/04/07 07:13:24;;;;;;;34.05;17.90;;;;;;;1.52;78.32;99137.16;1690129;83;21594;-84
2021/04/07 07:15:52;;;;;;;35.70;18.48;;;;;;;1.76;77.56;99133.54;1689075;84;21747;-78
2021/04/07 07:18:27;;;;;;;32.33;18.37;;;;;;;1.63;77.76;99136.29;1687285;83;21189;-82
2021/04/07 07:20:55;;;;;;;32.98;17.15;;;;;;;1.55;77.97;99143.89;1682034;84;21237;-82
2021/04/07 07:23:29;;;;;;;29.27;16.55;;;;;;;1.63;76.60;99131.09;1657104;84;21712;-82
2021/04/07 07:26:07;;;;;;;30.60;16.17;;;;;;;1.63;76.60;99131.09;1680773;84;21208;-80
2021/04/07 07:28:53;;;;;;;30.08;16.57;;;;;;;1.63;77.10;99154.50;1657737;84;21212;-80
2021/04/07 07:31:29;;;;;;;34.10;16.57;;;;;;;1.55;77.70;99163.41;1655591;84;21297;-82
2021/04/07 07:33:57;;;;;;;30.43;17.05;;;;;;;1.67;77.54;99157.22;1658191;84;21192;-83
2021/04/07 07:36:26;;;;;;;33.63;19.45;;;;;;;1.69;77.63;99176.62;1688263;84;21437;-82
2021/04/07 07:38:56;;;;;;;36.03;17.75;;;;;;;1.61;77.84;99172.03;1681223;84;21236;-80
2021/04/07 07:41:30;;;;;;;27.05;15.88;;;;;;;1.60;77.82;99175.56;1691163;84;22320;-80
2021/04/07 07:43:56;;;;;;;28.47;15.68;;;;;;;1.64;77.44;99179.59;1690035;83;21161;-84
2021/04/07 07:46:28;;;;;;;23.90;13.58;;;;;;;1.50;77.53;99179.88;1689563;83;21258;-82
2021/04/07 07:48:58;;;;;;;24.80;14.05;;;;;;;1.61;76.62;99177.23;1687533;84;22089;-80
2021/04/07 07:51:28;;;;;;;28.38;14.78;;;;;;;1.60;76.49;99180.77;1659659;84;21154;-82
2021/04/07 07:53:56;;;;;;;23.95;13.65;;;;;;;1.73;76.11;99186.66;1695199;83;21115;-83
2021/04/07 07:56:23;;;;;;;;;;;;;;;1.90;75.31;99181.39;1694668;83;21212;-82
2021/04/07 07:58:52;;;;;;;25.72;13.22;;;;;;;1.72;76.00;99191.50;1690371;84;20287;-78
2021/04/07 08:01:20;;;;;;;28.52;13.80;;;;;;;1.70;75.96;99188.20;1690320;84;21203;-79
2021/04/07 08:03:47;;;;;;;25.02;13.40;;;;;;;1.75;76.19;99179.55;1692354;84;21057;-78
2021/04/07 08:06:16;;;;;;;27.37;14.15;;;;;;;1.69;75.87;99178.73;1660034;84;21756;-77
2021/04/07 08:08:44;;;;;;;22.07;12.33;;;;;;;1.94;75.56;99188.47;1685899;84;21198;-81
2021/04/07 08:11:11;;;;;;;20.77;12.03;;;;;;;2.05;74.81;99183.23;1693702;82;21067;-82
2021/04/07 08:13:46;;;;;;;20.77;11.87;;;;;;;2.08;74.47;99179.08;1711353;82;21068;-83
2021/04/07 08:16:22;;;;;;;23.47;12.37;;;;;;;2.19;73.98;99194.28;1692049;82;21499;-79
2021/04/07 08:18:51;;;;;;;23.12;12.43;;;;;;;2.09;73.98;99184.61;1685938;84;22502;-83
2021/04/07 08:21:21;;;;;;;22.55;12.30;;;;;;;2.14;73.41;99190.30;1688561;84;21213;-82
2021/04/07 08:23:56;;;;;;;22.60;11.10;;;;;;;2.12;73.58;99181.77;1688136;84;21216;-79
2021/04/07 08:26:25;;;;;;;17.87;10.68;;;;;;;2.28;72.86;99190.92;1687136;84;21362;-81
2021/04/07 08:28:51;;;;;;;22.50;10.95;;;;;;;2.41;72.36;99193.33;1633828;84;21214;-81
2021/04/07 08:31:17;;;;;;;19.93;10.80;;;;;;;2.51;72.07;99195.03;1692634;84;21034;-83
2021/04/07 08:33:47;;;;;;;21.27;11.22;;;;;;;2.61;71.73;99203.39;1685052;84;21200;-80
2021/04/07 08:36:16;;;;;;;17.67;9.73;;;;;;;2.58;71.77;99206.25;1686464;83;21233;-81
2021/04/07 08:38:44;;;;;;;15.35;9.10;;;;;;;2.53;71.41;99218.85;1662822;84;21310;-81
2021/04/07 08:41:23;;;;;;;;;;;;;;;2.34;71.92;99215.16;1659643;84;21252;-79
2021/04/07 08:43:53;;;;;;;16.40;7.95;;;;;;;2.29;70.81;99208.21;1684936;84;20564;-79
2021/04/07 08:46:26;;;;;;;16.57;8.28;;;;;;;2.56;70.39;99209.47;1661505;84;21746;-78
2021/04/07 08:48:55;;;;;;;15.38;8.50;;;;;;;2.47;70.36;99220.17;1687131;84;21227;-77
2021/04/07 08:51:26;;;;;;;16.77;8.55;;;;;;;2.47;70.04;99208.45;1682218;84;21297;-76
2021/04/07 08:53:57;;;;;;;16.80;7.87;;;;;;;2.45;70.40;99213.79;1695031;84;21194;-76
2021/04/07 08:56:29;;;;;;;15.08;8.30;;;;;;;2.57;70.13;99205.92;1686219;84;21205;-77
2021/04/07 08:59:01;;;;;;;17.57;7.78;;;;;;;2.66;70.04;99207.77;1681657;83;21662;-75
2021/04/07 09:01:37;;;;;;;13.60;8.30;;;;;;;2.75;69.71;99206.98;1687292;84;21244;-76
2021/04/07 09:04:13;;;;;;;18.32;8.63;;;;;;;2.70;69.99;99219.56;1691058;84;21242;-76
2021/04/07 09:06:47;;;;;;;14.35;7.60;;;;;;;2.90;69.51;99210.06;1687642;82;21248;-75
2021/04/07 09:09:15;;;;;;;18.67;8.70;;;;;;;2.89;69.50;99212.34;1683715;84;21231;-79
2021/04/07 09:11:43;;;;;;;;;;;;;;;2.74;69.49;99217.55;1640824;84;21219;-77
2021/04/07 09:14:11;;;;;;;15.05;7.60;;;;;;;2.80;69.17;99207.42;1660522;84;20300;-81
2021/04/07 09:16:40;;;;;;;13.80;7.90;;;;;;;2.86;68.82;99226.45;1634954;84;21240;-81
2021/04/07 09:19:24;;;;;;;13.38;8.03;;;;;;;2.94;68.46;99217.98;1655468;84;21223;-77
2021/04/07 09:22:07;;;;;;;14.63;7.50;;;;;;;3.12;68.12;99215.57;1659589;84;21689;-79
2021/04/07 09:24:42;;;;;;;14.30;7.47;;;;;;;3.18;67.73;99216.35;1685014;84;21571;-79
2021/04/07 09:27:21;;;;;;;15.38;8.15;;;;;;;3.05;67.57;99231.42;1692559;84;21497;-81
2021/04/07 09:29:46;;;;;;;14.43;8.43;;;;;;;3.05;67.96;99220.98;1653828;84;21229;-79
2021/04/07 09:32:16;;;;;;;16.73;8.87;;;;;;;3.30;67.70;99210.56;1657358;84;21255;-81
2021/04/07 09:34:42;;;;;;;19.12;9.60;;;;;;;3.46;67.88;99215.27;1662549;82;21217;-82
2021/04/07 09:37:10;;;;;;;19.35;9.88;;;;;;;3.42;67.41;99212.60;1684741;82;21173;-79
2021/04/07 09:39:38;;;;;;;21.57;10.58;;;;;;;3.49;67.42;99215.00;1681968;84;21182;-81
2021/04/07 09:42:08;;;;;;;18.70;9.20;;;;;;;3.42;67.76;99216.52;1683517;82;21221;-80
2021/04/07 09:44:36;;;;;;;16.32;10.08;;;;;;;3.56;67.55;99225.76;1683762;83;21260;-78
2021/04/07 09:47:03;;;;;;;21.00;10.90;;;;;;;3.48;67.26;99227.73;1685367;84;21076;-80
2021/04/07 09:49:30;;;;;;;;;;;;;;;3.47;67.92;99237.81;1686294;81;21207;-77
2021/04/07 09:51:57;;;;;;;16.25;8.95;;;;;;;3.39;66.71;99221.52;1689821;84;20302;-80
2021/04/07 09:54:33;;;;;;;16.23;9.10;;;;;;;3.70;65.80;99211.49;1663003;84;21246;-81
2021/04/07 09:57:02;;;;;;;20.50;9.33;;;;;;;3.80;65.21;99214.92;1691903;84;21177;-78
2021/04/07 09:59:45;;;;;;;16.23;8.25;;;;;;;3.86;64.70;99207.04;1636292;84;21240;-80
2021/04/07 10:02:27;;;;;;;10.13;7.35;;;;;;;3.82;63.22;99228.66;1687531;84;21246;-79
2021/04/07 10:04:55;;;;;;;15.00;8.65;;;;;;;3.85;63.40;99219.25;1688895;84;21846;-80
2021/04/07 10:07:22;;;;;;;;;;;;;;;3.85;63.39;99228.88;1699705;84;21230;-80
2021/04/07 10:09:56;;;;;;;13.28;7.08;;;;;;;4.20;62.75;99217.90;1688106;84;20306;-82
2021/04/07 10:12:24;;;;;;;11.68;6.95;;;;;;;4.20;62.22;99210.06;1692341;83;21260;-81
2021/04/07 10:14:56;;;;;;;16.15;7.30;;;;;;;4.10;61.15;99218.38;1687172;82;21322;-81
2021/04/07 10:17:27;;;;;;;11.15;6.37;;;;;;;4.10;61.07;99217.06;1682844;84;21244;-83
2021/04/07 10:19:54;;;;;;;10.48;6.30;;;;;;;4.27;60.73;99209.02;1689438;83;21246;-81
2021/04/07 10:22:31;;;;;;;10.08;6.28;;;;;;;4.26;60.79;99218.66;1683679;82;21670;-82
2021/04/07 10:25:12;;;;;;;14.93;7.28;;;;;;;4.37;60.91;99236.47;1689898;84;21807;-82
2021/04/07 10:27:30;;;;;;;13.40;7.72;;;;;;;4.01;62.67;99230.95;1689339;82;21284;-83
2021/04/07 10:30:14;;;;;;;14.68;7.70;;;;;;;4.29;62.63;99223.61;1687698;82;25253;-82
2021/04/07 10:32:46;;;;;;;10.93;7.05;;;;;;;4.33;62.28;99224.14;1653856;84;21258;-81
2021/04/07 10:35:26;;;;;;;14.28;7.53;;;;;;;4.54;61.13;99208.77;1683812;84;21161;-81
2021/04/07 10:38:01;;;;;;;9.70;6.22;;;;;;;4.70;60.85;99216.86;1687537;84;21252;-79
2021/04/07 10:40:31;;;;;;;10.88;5.92;;;;;;;4.83;58.97;99219.16;1681570;84;21737;-82
2021/04/07 10:43:00;;;;;;;12.05;5.78;;;;;;;4.71;58.92;99237.30;1691255;82;21240;-79
2021/04/07 10:45:28;;;;;;;9.30;5.05;;;;;;;4.79;58.66;99255.73;1682548;82;21236;-82
2021/04/07 10:48:06;;;;;;;10.20;4.87;;;;;;;4.63;56.94;99214.00;1663063;84;21187;-81
2021/04/07 10:50:35;;;;;;;14.70;5.20;;;;;;;4.66;56.61;99239.02;1654657;84;33918;-80
2021/04/07 10:53:02;;;;;;;8.28;4.60;;;;;;;4.75;55.86;99229.52;1661200;84;22396;-85
2021/04/07 10:55:29;;;;;;;11.95;5.70;;;;;;;4.75;55.97;99242.59;1690698;84;21208;-82
2021/04/07 10:58:00;;;;;;;11.23;5.00;;;;;;;4.88;56.48;99230.05;1663293;83;21555;-84
2021/04/07 11:00:38;;;;;;;10.08;5.60;;;;;;;4.98;56.96;99225.58;1679214;84;21559;-82
2021/04/07 11:03:05;;;;;;;9.40;5.30;;;;;;;4.90;57.21;99239.87;1686163;83;21221;-81
2021/04/07 11:05:45;;;;;;;8.20;4.97;;;;;;;4.83;56.63;99250.55;1683765;84;21529;-82
2021/04/07 11:08:14;;;;;;;11.08;5.00;;;;;;;4.68;56.16;99232.70;1687135;83;21674;-80
2021/04/07 11:10:47;;;;;;;9.30;4.70;;;;;;;5.03;55.79;99227.31;1683337;84;21253;-82
2021/04/07 11:13:14;;;;;;;9.20;5.03;;;;;;;4.82;55.48;99254.16;1699698;82;21787;-82
2021/04/07 11:15:41;;;;;;;10.58;4.70;;;;;;;4.95;55.46;99236.34;1684975;83;21257;-82
2021/04/07 11:18:06;;;;;;;11.12;5.58;;;;;;;4.75;56.21;99237.36;1686878;83;21224;-81
2021/04/07 11:20:36;;;;;;;8.00;4.73;;;;;;;4.98;56.28;99226.89;1661572;83;26221;-82
2021/04/07 11:23:02;;;;;;;9.55;5.00;;;;;;;5.25;55.94;99223.98;1688457;83;21262;-84
2021/04/07 11:25:32;;;;;;;9.17;4.83;;;;;;;5.26;55.85;99236.09;1659523;83;25533;-82
2021/04/07 11:27:58;;;;;;;11.18;5.85;;;;;;;5.22;55.91;99234.75;1685118;83;21233;-80
2021/04/07 11:30:27;;;;;;;11.48;5.90;;;;;;;5.27;55.99;99219.42;1666902;83;21716;-80
2021/04/07 11:32:58;;;;;;;9.70;4.70;;;;;;;5.24;56.06;99235.42;1690384;82;21187;-81
2021/04/07 11:35:35;;;;;;;9.30;4.53;;;;;;;5.31;55.21;99231.23;1689333;83;21129;-80
2021/04/07 11:38:00;;;;;;;8.93;5.25;;;;;;;5.25;55.14;99233.16;1688459;83;21210;-87
2021/04/07 11:43:11;;;;;;;8.45;4.80;;;;;;;5.16;56.71;99240.56;1665224;83;21212;-81